AAL515 KPHX-MMUN
Flight info
| Callsign | AAL515 |
|---|---|
| Flight time | N/A |
| Altitude | 35000 |
| Route | ECLPS1 PHASE DCT ELP DCT KOBLE DCT KINEY DCT MAM UT22 VESKO UT11 URTEL UT47 XUDUN XUDUN1A |
| Aircraft | A21N/M-SDE3FGHIRWY/LB1 |
Departure
| Time | 2026-05-06 15:29 |
|---|---|
| Airport | Phoenix Sky Harbor International Airport (KPHX) |
Arrival
| Time | N/A |
|---|---|
| Airport | Cancún International Airport (MMUN) |
| Time | Latitude | Longitude | Altitude | Speed | Heading |
|---|---|---|---|---|---|
| 2026-05-06 15:14 | 33.43828 | -111.99910 | 1134 ft | 0 kts | 212° |
| 2026-05-06 15:17 | 33.43839 | -111.99902 | 1134 ft | 2 kts | 212° |
| 2026-05-06 15:17 | 33.43852 | -111.99892 | 1134 ft | 2 kts | 212° |
| 2026-05-06 15:18 | 33.43865 | -111.99882 | 1134 ft | 2 kts | 224° |
| 2026-05-06 15:18 | 33.43873 | -111.99867 | 1134 ft | 2 kts | 250° |
| 2026-05-06 15:18 | 33.43876 | -111.99849 | 1134 ft | 2 kts | 273° |
| 2026-05-06 15:18 | 33.43872 | -111.99831 | 1134 ft | 2 kts | 296° |
| 2026-05-06 15:19 | 33.43864 | -111.99817 | 1134 ft | 2 kts | 319° |
| 2026-05-06 15:19 | 33.43851 | -111.99808 | 1134 ft | 2 kts | 342° |
| 2026-05-06 15:19 | 33.43840 | -111.99805 | 1134 ft | 0 kts | 358° |
| 2026-05-06 15:19 | 33.43834 | -111.99805 | 1134 ft | 0 kts | 1° |
| 2026-05-06 15:23 | 33.43835 | -111.99805 | 1134 ft | 0 kts | 1° |
| 2026-05-06 15:23 | 33.43838 | -111.99805 | 1134 ft | 0 kts | 1° |
| 2026-05-06 15:23 | 33.43845 | -111.99805 | 1134 ft | 1 kts | 1° |
| 2026-05-06 15:23 | 33.43864 | -111.99804 | 1134 ft | 4 kts | 6° |
| 2026-05-06 15:24 | 33.43891 | -111.99779 | 1135 ft | 6 kts | 54° |
| 2026-05-06 15:24 | 33.43901 | -111.99721 | 1135 ft | 8 kts | 84° |
| 2026-05-06 15:24 | 33.43901 | -111.99641 | 1135 ft | 10 kts | 91° |
| 2026-05-06 15:24 | 33.43900 | -111.99544 | 1135 ft | 12 kts | 91° |
| 2026-05-06 15:25 | 33.43901 | -111.99430 | 1136 ft | 14 kts | 89° |
| 2026-05-06 15:25 | 33.43900 | -111.99314 | 1136 ft | 11 kts | 88° |
| 2026-05-06 15:25 | 33.43874 | -111.99232 | 1136 ft | 12 kts | 156° |
| 2026-05-06 15:25 | 33.43781 | -111.99229 | 1135 ft | 14 kts | 180° |
| 2026-05-06 15:26 | 33.43668 | -111.99229 | 1133 ft | 17 kts | 179° |
| 2026-05-06 15:26 | 33.43545 | -111.99229 | 1132 ft | 18 kts | 178° |
| 2026-05-06 15:26 | 33.43413 | -111.99225 | 1131 ft | 19 kts | 176° |
| 2026-05-06 15:26 | 33.43274 | -111.99229 | 1130 ft | 18 kts | 185° |
| 2026-05-06 15:27 | 33.43196 | -111.99275 | 1130 ft | 13 kts | 219° |
| 2026-05-06 15:27 | 33.43191 | -111.99281 | 1130 ft | 0 kts | 222° |
| 2026-05-06 15:27 | 33.43185 | -111.99287 | 1130 ft | 2 kts | 223° |
| 2026-05-06 15:27 | 33.43165 | -111.99310 | 1129 ft | 5 kts | 225° |
| 2026-05-06 15:28 | 33.43125 | -111.99352 | 1129 ft | 10 kts | 217° |
| 2026-05-06 15:28 | 33.43103 | -111.99444 | 1129 ft | 15 kts | 270° |
| 2026-05-06 15:28 | 33.43103 | -111.99786 | 1128 ft | 75 kts | 270° |
| 2026-05-06 15:28 | 33.43104 | -112.00691 | 1129 ft | 137 kts | 270° |
| 2026-05-06 15:29 | 33.43105 | -112.02031 | 1166 ft | 181 kts | 270° |
| 2026-05-06 15:29 | 33.43103 | -112.03558 | 1705 ft | 184 kts | 269° |
| 2026-05-06 15:29 | 33.43090 | -112.05083 | 2334 ft | 187 kts | 269° |
| 2026-05-06 15:29 | 33.43045 | -112.06637 | 2977 ft | 188 kts | 268° |
| 2026-05-06 15:30 | 33.42757 | -112.08209 | 3382 ft | 202 kts | 252° |
| 2026-05-06 15:30 | 33.42222 | -112.09824 | 3756 ft | 217 kts | 249° |
| 2026-05-06 15:30 | 33.41623 | -112.11560 | 4093 ft | 235 kts | 249° |
| 2026-05-06 15:30 | 33.40999 | -112.13442 | 4416 ft | 254 kts | 250° |
| 2026-05-06 15:31 | 33.40333 | -112.15472 | 4857 ft | 270 kts | 246° |
| 2026-05-06 15:31 | 33.39169 | -112.17248 | 5484 ft | 278 kts | 216° |
| 2026-05-06 15:31 | 33.37396 | -112.18117 | 6264 ft | 279 kts | 187° |
| 2026-05-06 15:32 | 33.33620 | -112.17213 | 7697 ft | 284 kts | 162° |
| 2026-05-06 15:32 | 33.31732 | -112.16496 | 8354 ft | 289 kts | 162° |
| 2026-05-06 15:32 | 33.29828 | -112.15693 | 9031 ft | 292 kts | 154° |
| 2026-05-06 15:32 | 33.28101 | -112.14378 | 9681 ft | 296 kts | 139° |
| 2026-05-06 15:33 | 33.26610 | -112.12698 | 10323 ft | 300 kts | 134° |
| 2026-05-06 15:33 | 33.25141 | -112.10876 | 10746 ft | 312 kts | 129° |
| 2026-05-06 15:33 | 33.23909 | -112.08692 | 11038 ft | 327 kts | 116° |
| 2026-05-06 15:33 | 33.23050 | -112.06091 | 11329 ft | 341 kts | 107° |
| 2026-05-06 15:34 | 33.22335 | -112.03321 | 11608 ft | 357 kts | 105° |
| 2026-05-06 15:34 | 33.21611 | -112.00429 | 11919 ft | 370 kts | 105° |
| 2026-05-06 15:34 | 33.20859 | -111.97465 | 12487 ft | 375 kts | 106° |
| 2026-05-06 15:34 | 33.20092 | -111.94491 | 13132 ft | 377 kts | 106° |
| 2026-05-06 15:35 | 33.19311 | -111.91489 | 13752 ft | 380 kts | 106° |
| 2026-05-06 15:35 | 33.18522 | -111.88470 | 14329 ft | 384 kts | 106° |
| 2026-05-06 15:35 | 33.17724 | -111.85421 | 14890 ft | 388 kts | 106° |
| 2026-05-06 15:35 | 33.16915 | -111.82344 | 15433 ft | 392 kts | 106° |
| 2026-05-06 15:36 | 33.16099 | -111.79246 | 15965 ft | 396 kts | 106° |
| 2026-05-06 15:36 | 33.15270 | -111.76101 | 16496 ft | 399 kts | 106° |
| 2026-05-06 15:36 | 33.14431 | -111.72927 | 17002 ft | 403 kts | 107° |
| 2026-05-06 15:36 | 33.13583 | -111.69725 | 17503 ft | 407 kts | 107° |
| 2026-05-06 15:37 | 33.12728 | -111.66492 | 17970 ft | 412 kts | 106° |
| 2026-05-06 15:37 | 33.11859 | -111.63216 | 18424 ft | 416 kts | 107° |
| 2026-05-06 15:37 | 33.10983 | -111.59914 | 18853 ft | 420 kts | 107° |
| 2026-05-06 15:37 | 33.10096 | -111.56568 | 19257 ft | 425 kts | 107° |
| 2026-05-06 15:38 | 33.09210 | -111.53239 | 19662 ft | 430 kts | 108° |
| 2026-05-06 15:38 | 33.08290 | -111.49787 | 20052 ft | 434 kts | 108° |
| 2026-05-06 15:38 | 33.07236 | -111.46404 | 20462 ft | 438 kts | 114° |
| 2026-05-06 15:38 | 33.05922 | -111.43139 | 20835 ft | 441 kts | 120° |
| 2026-05-06 15:39 | 33.04338 | -111.39992 | 21205 ft | 444 kts | 124° |
| 2026-05-06 15:39 | 33.02651 | -111.36913 | 21608 ft | 448 kts | 126° |
| 2026-05-06 15:39 | 33.00917 | -111.33787 | 21994 ft | 451 kts | 127° |
| 2026-05-06 15:39 | 32.99178 | -111.30650 | 22366 ft | 455 kts | 127° |
| 2026-05-06 15:40 | 32.97438 | -111.27503 | 22734 ft | 458 kts | 127° |
| 2026-05-06 15:40 | 32.95686 | -111.24329 | 23097 ft | 461 kts | 128° |
| 2026-05-06 15:40 | 32.93925 | -111.21137 | 23446 ft | 464 kts | 128° |
| 2026-05-06 15:40 | 32.92150 | -111.17918 | 23762 ft | 468 kts | 128° |
| 2026-05-06 15:41 | 32.90365 | -111.14681 | 24122 ft | 470 kts | 128° |
| 2026-05-06 15:41 | 32.88529 | -111.11355 | 24467 ft | 473 kts | 128° |
| 2026-05-06 15:41 | 32.86727 | -111.08086 | 24783 ft | 476 kts | 129° |
| 2026-05-06 15:41 | 32.84907 | -111.04792 | 25064 ft | 479 kts | 129° |
| 2026-05-06 15:42 | 32.83079 | -111.01482 | 25377 ft | 481 kts | 129° |
| 2026-05-06 15:42 | 32.81235 | -110.98154 | 25684 ft | 484 kts | 129° |
| 2026-05-06 15:42 | 32.79385 | -110.94807 | 25975 ft | 486 kts | 129° |
| 2026-05-06 15:42 | 32.77532 | -110.91463 | 26276 ft | 488 kts | 129° |
| 2026-05-06 15:43 | 32.75660 | -110.88092 | 26537 ft | 490 kts | 129° |
| 2026-05-06 15:43 | 32.73784 | -110.84710 | 26808 ft | 492 kts | 129° |
| 2026-05-06 15:43 | 32.71901 | -110.81315 | 27120 ft | 493 kts | 130° |
| 2026-05-06 15:43 | 32.70026 | -110.77940 | 27501 ft | 491 kts | 131° |
| 2026-05-06 15:44 | 32.68138 | -110.74540 | 27929 ft | 489 kts | 131° |
| 2026-05-06 15:44 | 32.66318 | -110.71156 | 28281 ft | 492 kts | 128° |
| 2026-05-06 15:44 | 32.64744 | -110.67537 | 28542 ft | 500 kts | 121° |
| 2026-05-06 15:44 | 32.63477 | -110.63667 | 28840 ft | 507 kts | 115° |
| 2026-05-06 15:45 | 32.62498 | -110.59609 | 29123 ft | 511 kts | 111° |
| 2026-05-06 15:45 | 32.61614 | -110.55524 | 29391 ft | 513 kts | 111° |
| 2026-05-06 15:45 | 32.60740 | -110.51401 | 29714 ft | 512 kts | 111° |
| 2026-05-06 15:45 | 32.59857 | -110.47265 | 30003 ft | 513 kts | 111° |
| 2026-05-06 15:46 | 32.58968 | -110.43182 | 30234 ft | 514 kts | 112° |
| 2026-05-06 15:46 | 32.58076 | -110.39125 | 30510 ft | 514 kts | 112° |
| 2026-05-06 15:46 | 32.57164 | -110.35003 | 30781 ft | 514 kts | 112° |
| 2026-05-06 15:46 | 32.56258 | -110.30917 | 31005 ft | 514 kts | 113° |
| 2026-05-06 15:47 | 32.55342 | -110.26819 | 31231 ft | 515 kts | 113° |
| 2026-05-06 15:47 | 32.54429 | -110.22732 | 31468 ft | 515 kts | 113° |
| 2026-05-06 15:47 | 32.53509 | -110.18623 | 31679 ft | 515 kts | 113° |
| 2026-05-06 15:47 | 32.52593 | -110.14548 | 31868 ft | 516 kts | 114° |
| 2026-05-06 15:48 | 32.51668 | -110.10422 | 32062 ft | 517 kts | 114° |
| 2026-05-06 15:48 | 32.50745 | -110.06316 | 32308 ft | 516 kts | 114° |
| 2026-05-06 15:48 | 32.49820 | -110.02209 | 32542 ft | 515 kts | 114° |
| 2026-05-06 15:48 | 32.48902 | -109.98151 | 32759 ft | 515 kts | 114° |
| 2026-05-06 15:49 | 32.47969 | -109.94019 | 32922 ft | 516 kts | 114° |
| 2026-05-06 15:49 | 32.47041 | -109.89934 | 33109 ft | 516 kts | 114° |
| 2026-05-06 15:49 | 32.46108 | -109.85824 | 33256 ft | 517 kts | 114° |
| 2026-05-06 15:49 | 32.45184 | -109.81757 | 33419 ft | 518 kts | 114° |
| 2026-05-06 15:50 | 32.44261 | -109.77628 | 33605 ft | 520 kts | 113° |
| 2026-05-06 15:50 | 32.43490 | -109.73428 | 33761 ft | 526 kts | 109° |
| 2026-05-06 15:50 | 32.42900 | -109.69132 | 33950 ft | 528 kts | 107° |
| 2026-05-06 15:50 | 32.42367 | -109.64840 | 34141 ft | 529 kts | 106° |
| 2026-05-06 15:51 | 32.41839 | -109.60520 | 34286 ft | 530 kts | 106° |
| 2026-05-06 15:51 | 32.41311 | -109.56216 | 34414 ft | 531 kts | 106° |
| 2026-05-06 15:51 | 32.40773 | -109.51906 | 34564 ft | 531 kts | 107° |
| 2026-05-06 15:51 | 32.40226 | -109.47581 | 34702 ft | 532 kts | 107° |
| 2026-05-06 15:52 | 32.39677 | -109.43267 | 34833 ft | 533 kts | 107° |
| 2026-05-06 15:52 | 32.39124 | -109.38957 | 34990 ft | 533 kts | 107° |
| 2026-05-06 15:52 | 32.38567 | -109.34631 | 35103 ft | 533 kts | 107° |
| 2026-05-06 15:52 | 32.38006 | -109.30294 | 35102 ft | 534 kts | 107° |
| 2026-05-06 15:53 | 32.36877 | -109.21581 | 35108 ft | 535 kts | 107° |
| 2026-05-06 15:53 | 32.35699 | -109.12898 | 35112 ft | 531 kts | 110° |
| 2026-05-06 15:54 | 32.34164 | -109.04391 | 35117 ft | 530 kts | 111° |
| 2026-05-06 15:54 | 32.32599 | -108.95863 | 35117 ft | 530 kts | 111° |
| 2026-05-06 15:55 | 32.31045 | -108.87312 | 35118 ft | 531 kts | 111° |
| 2026-05-06 15:55 | 32.29499 | -108.78754 | 35118 ft | 532 kts | 111° |
| 2026-05-06 15:56 | 32.27949 | -108.70171 | 35113 ft | 532 kts | 111° |
| 2026-05-06 15:56 | 32.26405 | -108.61643 | 35113 ft | 529 kts | 111° |
| 2026-05-06 15:57 | 32.24858 | -108.53171 | 35122 ft | 530 kts | 111° |
| 2026-05-06 15:57 | 32.23298 | -108.44657 | 35135 ft | 531 kts | 111° |
| 2026-05-06 15:58 | 32.21747 | -108.36214 | 35136 ft | 531 kts | 111° |
| 2026-05-06 15:58 | 32.20158 | -108.27594 | 35134 ft | 530 kts | 111° |
| 2026-05-06 15:59 | 32.18586 | -108.19121 | 35138 ft | 531 kts | 112° |
| 2026-05-06 15:59 | 32.17010 | -108.10632 | 35134 ft | 529 kts | 111° |
| 2026-05-06 16:00 | 32.15427 | -108.02156 | 35133 ft | 529 kts | 112° |
| 2026-05-06 16:00 | 32.13833 | -107.93668 | 35133 ft | 531 kts | 111° |
| 2026-05-06 16:01 | 32.12246 | -107.85218 | 35125 ft | 530 kts | 112° |
| 2026-05-06 16:01 | 32.10637 | -107.76709 | 35122 ft | 531 kts | 111° |
| 2026-05-06 16:02 | 32.09031 | -107.68247 | 35121 ft | 531 kts | 111° |
| 2026-05-06 16:02 | 32.07423 | -107.59776 | 35117 ft | 530 kts | 112° |
| 2026-05-06 16:03 | 32.05811 | -107.51325 | 35117 ft | 528 kts | 111° |
| 2026-05-06 16:03 | 32.04189 | -107.42881 | 35114 ft | 529 kts | 112° |
| 2026-05-06 16:04 | 32.02575 | -107.34503 | 35116 ft | 529 kts | 112° |
| 2026-05-06 16:04 | 32.00944 | -107.26056 | 35111 ft | 528 kts | 112° |
| 2026-05-06 16:05 | 31.99308 | -107.17630 | 35116 ft | 527 kts | 112° |
| 2026-05-06 16:05 | 31.97668 | -107.09218 | 35112 ft | 527 kts | 112° |
| 2026-05-06 16:06 | 31.96030 | -107.00838 | 35115 ft | 527 kts | 112° |
| 2026-05-06 16:06 | 31.94381 | -106.92445 | 35111 ft | 528 kts | 112° |
| 2026-05-06 16:07 | 31.92726 | -106.84037 | 35109 ft | 528 kts | 112° |
| 2026-05-06 16:07 | 31.91069 | -106.75635 | 35114 ft | 526 kts | 112° |
| 2026-05-06 16:08 | 31.89397 | -106.67221 | 35117 ft | 527 kts | 112° |
| 2026-05-06 16:08 | 31.87733 | -106.58854 | 35113 ft | 525 kts | 113° |
| 2026-05-06 16:09 | 31.86052 | -106.50455 | 35115 ft | 528 kts | 113° |
| 2026-05-06 16:09 | 31.84381 | -106.42094 | 35109 ft | 525 kts | 113° |
| 2026-05-06 16:10 | 31.82709 | -106.33777 | 35112 ft | 523 kts | 115° |
| 2026-05-06 16:10 | 31.80607 | -106.25693 | 35110 ft | 512 kts | 122° |
| 2026-05-06 16:11 | 31.77829 | -106.18033 | 35113 ft | 505 kts | 126° |
| 2026-05-06 16:11 | 31.74975 | -106.10555 | 35117 ft | 505 kts | 126° |
| 2026-05-06 16:12 | 31.72121 | -106.03039 | 35116 ft | 504 kts | 126° |
| 2026-05-06 16:12 | 31.69258 | -105.95483 | 35119 ft | 504 kts | 126° |
| 2026-05-06 16:13 | 31.66403 | -105.87952 | 35128 ft | 506 kts | 126° |
| 2026-05-06 16:13 | 31.63555 | -105.80449 | 35131 ft | 508 kts | 126° |
| 2026-05-06 16:14 | 31.60676 | -105.72865 | 35132 ft | 506 kts | 126° |
| 2026-05-06 16:14 | 31.57810 | -105.65346 | 35129 ft | 507 kts | 126° |
| 2026-05-06 16:15 | 31.54916 | -105.57770 | 35131 ft | 508 kts | 126° |
| 2026-05-06 16:15 | 31.52022 | -105.50206 | 35131 ft | 508 kts | 126° |
| 2026-05-06 16:16 | 31.49129 | -105.42657 | 35124 ft | 508 kts | 126° |
| 2026-05-06 16:16 | 31.46245 | -105.35149 | 35128 ft | 508 kts | 126° |
| 2026-05-06 16:17 | 31.43348 | -105.27622 | 35122 ft | 506 kts | 127° |
| 2026-05-06 16:17 | 31.40438 | -105.20087 | 35122 ft | 508 kts | 126° |
| 2026-05-06 16:18 | 31.37534 | -105.12585 | 35123 ft | 508 kts | 126° |
| 2026-05-06 16:18 | 31.34614 | -105.05045 | 35120 ft | 508 kts | 126° |
| 2026-05-06 16:19 | 31.31706 | -104.97559 | 35120 ft | 508 kts | 126° |
| 2026-05-06 16:19 | 31.28786 | -104.90057 | 35120 ft | 508 kts | 126° |
| 2026-05-06 16:20 | 31.25865 | -104.82574 | 35118 ft | 509 kts | 126° |
| 2026-05-06 16:20 | 31.22918 | -104.75036 | 35108 ft | 510 kts | 126° |
| 2026-05-06 16:21 | 31.19978 | -104.67522 | 35109 ft | 509 kts | 126° |
| 2026-05-06 16:21 | 31.17043 | -104.60046 | 35110 ft | 509 kts | 126° |
| 2026-05-06 16:22 | 31.14094 | -104.52554 | 35117 ft | 509 kts | 126° |
| 2026-05-06 16:22 | 31.11135 | -104.45047 | 35116 ft | 507 kts | 126° |
| 2026-05-06 16:23 | 31.08185 | -104.37575 | 35121 ft | 506 kts | 126° |
| 2026-05-06 16:23 | 31.05240 | -104.30134 | 35119 ft | 506 kts | 127° |
| 2026-05-06 16:24 | 31.02248 | -104.22598 | 35122 ft | 506 kts | 127° |
| 2026-05-06 16:24 | 30.99288 | -104.15151 | 35124 ft | 507 kts | 127° |
| 2026-05-06 16:25 | 30.96301 | -104.07655 | 35127 ft | 506 kts | 127° |
| 2026-05-06 16:25 | 30.93346 | -104.00240 | 35127 ft | 505 kts | 127° |
| 2026-05-06 16:26 | 30.90382 | -103.92819 | 35128 ft | 505 kts | 127° |
| 2026-05-06 16:26 | 30.87383 | -103.85346 | 35122 ft | 508 kts | 126° |
| 2026-05-06 16:27 | 30.84409 | -103.77932 | 35114 ft | 508 kts | 126° |
| 2026-05-06 16:27 | 30.81407 | -103.70467 | 35102 ft | 507 kts | 126° |
| 2026-05-06 16:28 | 30.78425 | -103.63074 | 35101 ft | 508 kts | 126° |
| 2026-05-06 16:28 | 30.75436 | -103.55668 | 35099 ft | 506 kts | 126° |
| 2026-05-06 16:29 | 30.72422 | -103.48232 | 35086 ft | 507 kts | 126° |
| 2026-05-06 16:29 | 30.69415 | -103.40827 | 35086 ft | 507 kts | 126° |
| 2026-05-06 16:30 | 30.66910 | -103.34652 | 35084 ft | 506 kts | 127° |
| 2026-05-06 16:30 | 30.63410 | -103.26068 | 35083 ft | 507 kts | 127° |
| 2026-05-06 16:31 | 30.60381 | -103.18650 | 35084 ft | 507 kts | 127° |
| 2026-05-06 16:31 | 30.57387 | -103.11320 | 35081 ft | 505 kts | 127° |
| 2026-05-06 16:32 | 30.54363 | -103.03944 | 35085 ft | 505 kts | 127° |
| 2026-05-06 16:32 | 30.51351 | -102.96610 | 35087 ft | 503 kts | 127° |
| 2026-05-06 16:33 | 30.48346 | -102.89301 | 35081 ft | 503 kts | 127° |
| 2026-05-06 16:34 | 30.43799 | -102.78286 | 35093 ft | 502 kts | 127° |
| 2026-05-06 16:34 | 30.40782 | -102.70998 | 35084 ft | 505 kts | 126° |
| 2026-05-06 16:35 | 30.37752 | -102.63689 | 35078 ft | 506 kts | 126° |
| 2026-05-06 16:35 | 30.34702 | -102.56345 | 35077 ft | 507 kts | 127° |
| 2026-05-06 16:36 | 30.31639 | -102.48982 | 35060 ft | 505 kts | 126° |
| 2026-05-06 16:36 | 30.28594 | -102.41673 | 35051 ft | 505 kts | 126° |
| 2026-05-06 16:37 | 30.25525 | -102.34325 | 35034 ft | 504 kts | 127° |
| 2026-05-06 16:37 | 30.22476 | -102.27043 | 35017 ft | 506 kts | 127° |
| 2026-05-06 16:38 | 30.19404 | -102.19715 | 35000 ft | 505 kts | 126° |
| 2026-05-06 16:38 | 30.16338 | -102.12413 | 34990 ft | 506 kts | 127° |
| 2026-05-06 16:39 | 30.13274 | -102.05131 | 34977 ft | 508 kts | 127° |
| 2026-05-06 16:39 | 30.10193 | -101.97817 | 34972 ft | 506 kts | 126° |
| 2026-05-06 16:40 | 30.07100 | -101.90503 | 34967 ft | 507 kts | 126° |
| 2026-05-06 16:40 | 30.04000 | -101.83178 | 34959 ft | 507 kts | 126° |
| 2026-05-06 16:41 | 30.00912 | -101.75899 | 34960 ft | 508 kts | 126° |
| 2026-05-06 16:41 | 29.97807 | -101.68587 | 34953 ft | 507 kts | 126° |
| 2026-05-06 16:42 | 29.94700 | -101.61289 | 34949 ft | 508 kts | 126° |
| 2026-05-06 16:42 | 29.91592 | -101.53995 | 34951 ft | 507 kts | 126° |
| 2026-05-06 16:43 | 29.88460 | -101.46671 | 34949 ft | 507 kts | 126° |
| 2026-05-06 16:43 | 29.85088 | -101.39630 | 34952 ft | 501 kts | 130° |
| 2026-05-06 16:44 | 29.81468 | -101.32701 | 34951 ft | 500 kts | 131° |
| 2026-05-06 16:44 | 29.77864 | -101.25823 | 34952 ft | 501 kts | 131° |
| 2026-05-06 16:45 | 29.74279 | -101.18971 | 34950 ft | 501 kts | 131° |
| 2026-05-06 16:45 | 29.70699 | -101.12135 | 34952 ft | 501 kts | 131° |
| 2026-05-06 16:46 | 29.67097 | -101.05260 | 34942 ft | 500 kts | 131° |
| 2026-05-06 16:46 | 29.63502 | -100.98412 | 34937 ft | 500 kts | 131° |
| 2026-05-06 16:47 | 29.59928 | -100.91619 | 34935 ft | 502 kts | 131° |
| 2026-05-06 16:47 | 29.56313 | -100.84753 | 34933 ft | 501 kts | 131° |
| 2026-05-06 16:48 | 29.52687 | -100.77883 | 34920 ft | 501 kts | 131° |
| 2026-05-06 16:48 | 29.49079 | -100.71053 | 34916 ft | 500 kts | 131° |
| 2026-05-06 16:49 | 29.45467 | -100.64235 | 34915 ft | 500 kts | 130° |
| 2026-05-06 16:49 | 29.41860 | -100.57432 | 34917 ft | 499 kts | 130° |
| 2026-05-06 16:50 | 29.38245 | -100.50621 | 34917 ft | 498 kts | 130° |
| 2026-05-06 16:50 | 29.34660 | -100.43888 | 34919 ft | 498 kts | 130° |
| 2026-05-06 16:51 | 29.31051 | -100.37119 | 34913 ft | 498 kts | 130° |
| 2026-05-06 16:51 | 29.27425 | -100.30325 | 34912 ft | 497 kts | 131° |
| 2026-05-06 16:52 | 29.23813 | -100.23573 | 34911 ft | 497 kts | 130° |
| 2026-05-06 16:52 | 29.20227 | -100.16877 | 34908 ft | 497 kts | 130° |
| 2026-05-06 16:53 | 29.16608 | -100.10130 | 34904 ft | 496 kts | 130° |
| 2026-05-06 16:53 | 29.13006 | -100.03426 | 34899 ft | 495 kts | 130° |
| 2026-05-06 16:54 | 29.09386 | -99.96699 | 34893 ft | 495 kts | 130° |
| 2026-05-06 16:54 | 29.05772 | -99.89998 | 34892 ft | 495 kts | 130° |
| 2026-05-06 16:55 | 29.02161 | -99.83310 | 34893 ft | 496 kts | 130° |
| 2026-05-06 16:55 | 28.98547 | -99.76629 | 34896 ft | 495 kts | 130° |
| 2026-05-06 16:56 | 28.94930 | -99.69952 | 34900 ft | 495 kts | 130° |
| 2026-05-06 16:56 | 28.91300 | -99.63266 | 34892 ft | 496 kts | 130° |
| 2026-05-06 16:57 | 28.87668 | -99.56578 | 34887 ft | 495 kts | 130° |
| 2026-05-06 16:57 | 28.84030 | -99.49895 | 34884 ft | 496 kts | 130° |
| 2026-05-06 16:58 | 28.80395 | -99.43227 | 34879 ft | 496 kts | 130° |
| 2026-05-06 16:58 | 28.76668 | -99.36665 | 34870 ft | 489 kts | 135° |
| 2026-05-06 16:59 | 28.72201 | -99.30916 | 34870 ft | 475 kts | 146° |
| 2026-05-06 16:59 | 28.67118 | -99.26331 | 34865 ft | 461 kts | 156° |
| 2026-05-06 17:00 | 28.61610 | -99.22740 | 34864 ft | 454 kts | 161° |
| 2026-05-06 17:00 | 28.56026 | -99.19336 | 34868 ft | 454 kts | 161° |
| 2026-05-06 17:01 | 28.50477 | -99.15942 | 34866 ft | 455 kts | 161° |
| 2026-05-06 17:01 | 28.44915 | -99.12528 | 34866 ft | 454 kts | 161° |
| 2026-05-06 17:02 | 28.39344 | -99.09109 | 34865 ft | 455 kts | 161° |
| 2026-05-06 17:02 | 28.33751 | -99.05677 | 34862 ft | 454 kts | 161° |
| 2026-05-06 17:03 | 28.28217 | -99.02285 | 34859 ft | 454 kts | 161° |
| 2026-05-06 17:03 | 28.22615 | -98.98856 | 34854 ft | 454 kts | 161° |
| 2026-05-06 17:04 | 28.17072 | -98.95468 | 34852 ft | 454 kts | 161° |
| 2026-05-06 17:04 | 28.11520 | -98.92078 | 34853 ft | 454 kts | 161° |
| 2026-05-06 17:05 | 28.05916 | -98.88660 | 34851 ft | 454 kts | 160° |
| 2026-05-06 17:05 | 28.00363 | -98.85277 | 34850 ft | 455 kts | 160° |
| 2026-05-06 17:06 | 27.94788 | -98.81885 | 34852 ft | 455 kts | 160° |
| 2026-05-06 17:06 | 27.89175 | -98.78473 | 34856 ft | 455 kts | 160° |
| 2026-05-06 17:07 | 27.83577 | -98.75075 | 34855 ft | 456 kts | 160° |
| 2026-05-06 17:07 | 27.77973 | -98.71676 | 34856 ft | 455 kts | 160° |
| 2026-05-06 17:08 | 27.72405 | -98.68302 | 34855 ft | 455 kts | 160° |
| 2026-05-06 17:08 | 27.66836 | -98.64935 | 34855 ft | 456 kts | 160° |
| 2026-05-06 17:09 | 27.61236 | -98.61551 | 34855 ft | 455 kts | 160° |
| 2026-05-06 17:09 | 27.55652 | -98.58181 | 34852 ft | 455 kts | 160° |
| 2026-05-06 17:10 | 27.50060 | -98.54810 | 34844 ft | 455 kts | 159° |
| 2026-05-06 17:10 | 27.44493 | -98.51456 | 34841 ft | 455 kts | 160° |
| 2026-05-06 17:11 | 27.38914 | -98.48102 | 34832 ft | 454 kts | 159° |
| 2026-05-06 17:11 | 27.33319 | -98.44742 | 34825 ft | 454 kts | 159° |
| 2026-05-06 17:12 | 27.27721 | -98.41383 | 34826 ft | 455 kts | 159° |
| 2026-05-06 17:12 | 27.22135 | -98.38034 | 34823 ft | 454 kts | 159° |
| 2026-05-06 17:13 | 27.16522 | -98.34673 | 34816 ft | 454 kts | 159° |
| 2026-05-06 17:13 | 27.10982 | -98.31361 | 34817 ft | 454 kts | 159° |
| 2026-05-06 17:14 | 27.05406 | -98.28030 | 34815 ft | 453 kts | 159° |
| 2026-05-06 17:14 | 26.99820 | -98.24698 | 34806 ft | 453 kts | 159° |
| 2026-05-06 17:15 | 26.94246 | -98.21376 | 34805 ft | 453 kts | 159° |
| 2026-05-06 17:15 | 26.88634 | -98.18035 | 34804 ft | 453 kts | 159° |
| 2026-05-06 17:16 | 26.83046 | -98.14713 | 34805 ft | 454 kts | 159° |
| 2026-05-06 17:16 | 26.77458 | -98.11391 | 34805 ft | 453 kts | 159° |
| 2026-05-06 17:17 | 26.71870 | -98.08079 | 34808 ft | 453 kts | 159° |
| 2026-05-06 17:17 | 26.66251 | -98.04748 | 34807 ft | 453 kts | 159° |
| 2026-05-06 17:18 | 26.60666 | -98.01443 | 34804 ft | 453 kts | 159° |
| 2026-05-06 17:18 | 26.55118 | -97.98161 | 34806 ft | 453 kts | 159° |
| 2026-05-06 17:19 | 26.49494 | -97.94840 | 34809 ft | 454 kts | 159° |
| 2026-05-06 17:19 | 26.43933 | -97.91560 | 34808 ft | 454 kts | 158° |
| 2026-05-06 17:20 | 26.38342 | -97.88264 | 34810 ft | 454 kts | 159° |
| 2026-05-06 17:20 | 26.32739 | -97.84965 | 34809 ft | 454 kts | 158° |
| 2026-05-06 17:21 | 26.27144 | -97.81677 | 34810 ft | 454 kts | 158° |
| 2026-05-06 17:21 | 26.21580 | -97.78407 | 34812 ft | 454 kts | 158° |
| 2026-05-06 17:22 | 26.15995 | -97.75130 | 34813 ft | 454 kts | 158° |
| 2026-05-06 17:22 | 26.10376 | -97.71838 | 34811 ft | 454 kts | 158° |
| 2026-05-06 17:23 | 26.04780 | -97.68561 | 34811 ft | 455 kts | 158° |
| 2026-05-06 17:23 | 25.99171 | -97.65278 | 34827 ft | 455 kts | 158° |
| 2026-05-06 17:24 | 25.93563 | -97.62000 | 34830 ft | 455 kts | 158° |
| 2026-05-06 17:24 | 25.87948 | -97.58724 | 34842 ft | 455 kts | 158° |
| 2026-05-06 17:25 | 25.82434 | -97.55206 | 34845 ft | 461 kts | 151° |
| 2026-05-06 17:25 | 25.77439 | -97.50642 | 34847 ft | 468 kts | 140° |
| 2026-05-06 17:26 | 25.73234 | -97.45100 | 34847 ft | 477 kts | 129° |
| 2026-05-06 17:26 | 25.69757 | -97.38806 | 34849 ft | 480 kts | 124° |
| 2026-05-06 17:27 | 25.66399 | -97.32398 | 34837 ft | 480 kts | 124° |
| 2026-05-06 17:27 | 25.63023 | -97.26027 | 34835 ft | 480 kts | 125° |
| 2026-05-06 17:28 | 25.59632 | -97.19674 | 34825 ft | 480 kts | 125° |
| 2026-05-06 17:28 | 25.56251 | -97.13353 | 34819 ft | 480 kts | 125° |
| 2026-05-06 17:29 | 25.52846 | -97.06998 | 34819 ft | 480 kts | 125° |
| 2026-05-06 17:29 | 25.49449 | -97.00670 | 34824 ft | 479 kts | 125° |
| 2026-05-06 17:30 | 25.46043 | -96.94330 | 34825 ft | 479 kts | 125° |
| 2026-05-06 17:30 | 25.42652 | -96.88027 | 34830 ft | 479 kts | 125° |
| 2026-05-06 17:31 | 25.39236 | -96.81685 | 34835 ft | 479 kts | 125° |
| 2026-05-06 17:31 | 25.35840 | -96.75385 | 34835 ft | 479 kts | 125° |
| 2026-05-06 17:32 | 25.32427 | -96.69067 | 34832 ft | 478 kts | 124° |
| 2026-05-06 17:32 | 25.29029 | -96.62785 | 34830 ft | 478 kts | 124° |
| 2026-05-06 17:33 | 25.25609 | -96.56468 | 34831 ft | 478 kts | 124° |
| 2026-05-06 17:33 | 25.22215 | -96.50205 | 34830 ft | 478 kts | 124° |
| 2026-05-06 17:34 | 25.18815 | -96.43942 | 34835 ft | 477 kts | 124° |
| 2026-05-06 17:34 | 25.15402 | -96.37668 | 34830 ft | 477 kts | 124° |
| 2026-05-06 17:35 | 25.11986 | -96.31391 | 34830 ft | 477 kts | 125° |
| 2026-05-06 17:35 | 25.08580 | -96.25143 | 34834 ft | 477 kts | 125° |
| 2026-05-06 17:36 | 25.03452 | -96.15752 | 34830 ft | 477 kts | 125° |
| 2026-05-06 17:36 | 25.00030 | -96.09493 | 34827 ft | 477 kts | 125° |
| 2026-05-06 17:37 | 24.96598 | -96.03224 | 34832 ft | 477 kts | 124° |
| 2026-05-06 17:37 | 24.93178 | -95.96987 | 34835 ft | 476 kts | 125° |
| 2026-05-06 17:38 | 24.89753 | -95.90752 | 34836 ft | 476 kts | 125° |
| 2026-05-06 17:38 | 24.86341 | -95.84546 | 34839 ft | 475 kts | 124° |
| 2026-05-06 17:39 | 24.82922 | -95.78333 | 34834 ft | 476 kts | 124° |
| 2026-05-06 17:39 | 24.79491 | -95.72108 | 34834 ft | 475 kts | 124° |
| 2026-05-06 17:40 | 24.76073 | -95.65916 | 34839 ft | 476 kts | 124° |
| 2026-05-06 17:40 | 24.72641 | -95.59710 | 34835 ft | 476 kts | 124° |
| 2026-05-06 17:41 | 24.69190 | -95.53477 | 34837 ft | 475 kts | 124° |
| 2026-05-06 17:41 | 24.65774 | -95.47311 | 34836 ft | 475 kts | 124° |
| 2026-05-06 17:42 | 24.62334 | -95.41112 | 34841 ft | 475 kts | 124° |
| 2026-05-06 17:42 | 24.58916 | -95.34962 | 34846 ft | 474 kts | 125° |
| 2026-05-06 17:43 | 24.55459 | -95.28747 | 34847 ft | 474 kts | 125° |
| 2026-05-06 17:43 | 24.52028 | -95.22590 | 34850 ft | 474 kts | 125° |
| 2026-05-06 17:44 | 24.48586 | -95.16416 | 34851 ft | 474 kts | 125° |
| 2026-05-06 17:44 | 24.45131 | -95.10231 | 34854 ft | 473 kts | 125° |
| 2026-05-06 17:45 | 24.41694 | -95.04095 | 34854 ft | 474 kts | 125° |
| 2026-05-06 17:45 | 24.38255 | -94.97962 | 34855 ft | 473 kts | 125° |
| 2026-05-06 17:46 | 24.34817 | -94.91836 | 34856 ft | 472 kts | 125° |
| 2026-05-06 17:46 | 24.31372 | -94.85703 | 34854 ft | 472 kts | 125° |
| 2026-05-06 17:47 | 24.27933 | -94.79591 | 34855 ft | 472 kts | 125° |
| 2026-05-06 17:47 | 24.24497 | -94.73489 | 34854 ft | 472 kts | 125° |
| 2026-05-06 17:48 | 24.21046 | -94.67369 | 34852 ft | 472 kts | 124° |
| 2026-05-06 17:48 | 24.17623 | -94.61305 | 34854 ft | 472 kts | 124° |
| 2026-05-06 17:49 | 24.14485 | -94.54982 | 34852 ft | 474 kts | 118° |
| 2026-05-06 17:49 | 24.11916 | -94.48345 | 34844 ft | 475 kts | 115° |
| 2026-05-06 17:50 | 24.09427 | -94.41634 | 34843 ft | 474 kts | 115° |
| 2026-05-06 17:50 | 24.06942 | -94.34965 | 34841 ft | 474 kts | 115° |
| 2026-05-06 17:51 | 24.04452 | -94.28310 | 34847 ft | 473 kts | 115° |
| 2026-05-06 17:51 | 24.01960 | -94.21669 | 34850 ft | 473 kts | 115° |
| 2026-05-06 17:52 | 23.99460 | -94.15018 | 34847 ft | 474 kts | 115° |
| 2026-05-06 17:52 | 23.96963 | -94.08385 | 34848 ft | 474 kts | 115° |
| 2026-05-06 17:53 | 23.94461 | -94.01749 | 34854 ft | 473 kts | 115° |
| 2026-05-06 17:53 | 23.91958 | -93.95117 | 34853 ft | 472 kts | 115° |
| 2026-05-06 17:54 | 23.89464 | -93.88522 | 34854 ft | 472 kts | 115° |
| 2026-05-06 17:54 | 23.86968 | -93.81927 | 34852 ft | 471 kts | 115° |
| 2026-05-06 17:55 | 23.84459 | -93.75307 | 34856 ft | 471 kts | 115° |
| 2026-05-06 17:55 | 23.81961 | -93.68723 | 34858 ft | 471 kts | 115° |
| 2026-05-06 17:56 | 23.79443 | -93.62094 | 34860 ft | 471 kts | 115° |
| 2026-05-06 17:56 | 23.76939 | -93.55513 | 34855 ft | 470 kts | 115° |
| 2026-05-06 17:57 | 23.74435 | -93.48940 | 34865 ft | 471 kts | 115° |
| 2026-05-06 17:57 | 23.71927 | -93.42364 | 34873 ft | 471 kts | 115° |
| 2026-05-06 17:58 | 23.69414 | -93.35792 | 34873 ft | 470 kts | 115° |
| 2026-05-06 17:58 | 23.66897 | -93.29215 | 34871 ft | 469 kts | 115° |
| 2026-05-06 17:59 | 23.64382 | -93.22652 | 34874 ft | 469 kts | 115° |
| 2026-05-06 17:59 | 23.61874 | -93.16120 | 34874 ft | 468 kts | 115° |
| 2026-05-06 18:00 | 23.59362 | -93.09586 | 34875 ft | 468 kts | 115° |
| 2026-05-06 18:00 | 23.56838 | -93.03031 | 34876 ft | 468 kts | 115° |
| 2026-05-06 18:01 | 23.54332 | -92.96526 | 34879 ft | 467 kts | 115° |
| 2026-05-06 18:01 | 23.51819 | -92.90019 | 34878 ft | 468 kts | 115° |
| 2026-05-06 18:02 | 23.49296 | -92.83499 | 34879 ft | 468 kts | 115° |
| 2026-05-06 18:02 | 23.46761 | -92.76953 | 34880 ft | 469 kts | 115° |
| 2026-05-06 18:03 | 23.44240 | -92.70449 | 34882 ft | 468 kts | 115° |
| 2026-05-06 18:03 | 23.41698 | -92.63905 | 34887 ft | 468 kts | 115° |
| 2026-05-06 18:04 | 23.39169 | -92.57404 | 34888 ft | 469 kts | 115° |
| 2026-05-06 18:04 | 23.36626 | -92.50877 | 34891 ft | 468 kts | 115° |
| 2026-05-06 18:05 | 23.34078 | -92.44342 | 34890 ft | 468 kts | 115° |
| 2026-05-06 18:05 | 23.31545 | -92.37859 | 34891 ft | 468 kts | 115° |
| 2026-05-06 18:06 | 23.28998 | -92.31347 | 34891 ft | 468 kts | 115° |
| 2026-05-06 18:06 | 23.26446 | -92.24834 | 34897 ft | 469 kts | 115° |
| 2026-05-06 18:07 | 23.23899 | -92.18342 | 34894 ft | 468 kts | 115° |
| 2026-05-06 18:07 | 23.21343 | -92.11835 | 34893 ft | 468 kts | 115° |
| 2026-05-06 18:08 | 23.18792 | -92.05350 | 34893 ft | 467 kts | 115° |
| 2026-05-06 18:08 | 23.16290 | -91.98998 | 34894 ft | 468 kts | 115° |
| 2026-05-06 18:09 | 23.13728 | -91.92507 | 34894 ft | 468 kts | 115° |
| 2026-05-06 18:09 | 23.11160 | -91.86007 | 34896 ft | 468 kts | 115° |
| 2026-05-06 18:10 | 23.08609 | -91.79558 | 34896 ft | 467 kts | 115° |
| 2026-05-06 18:10 | 23.06046 | -91.73086 | 34899 ft | 467 kts | 115° |
| 2026-05-06 18:11 | 23.03472 | -91.66600 | 34901 ft | 467 kts | 115° |
| 2026-05-06 18:11 | 23.00900 | -91.60126 | 34899 ft | 467 kts | 115° |
| 2026-05-06 18:12 | 22.98329 | -91.53661 | 34900 ft | 467 kts | 115° |
| 2026-05-06 18:12 | 22.95754 | -91.47197 | 34898 ft | 467 kts | 115° |
| 2026-05-06 18:13 | 22.93182 | -91.40758 | 34893 ft | 468 kts | 115° |
| 2026-05-06 18:13 | 22.90586 | -91.34272 | 34885 ft | 468 kts | 115° |
| 2026-05-06 18:14 | 22.87986 | -91.27780 | 34886 ft | 468 kts | 116° |
| 2026-05-06 18:14 | 22.85396 | -91.21323 | 34887 ft | 468 kts | 115° |
| 2026-05-06 18:15 | 22.82806 | -91.14872 | 34891 ft | 469 kts | 115° |
| 2026-05-06 18:15 | 22.80203 | -91.08401 | 34891 ft | 468 kts | 115° |
| 2026-05-06 18:16 | 22.77602 | -91.01942 | 34891 ft | 468 kts | 115° |
| 2026-05-06 18:16 | 22.74990 | -90.95466 | 34894 ft | 468 kts | 115° |
| 2026-05-06 18:17 | 22.72381 | -90.89008 | 34895 ft | 469 kts | 115° |
| 2026-05-06 18:17 | 22.69770 | -90.82552 | 34896 ft | 469 kts | 115° |
| 2026-05-06 18:18 | 22.67150 | -90.76083 | 34896 ft | 469 kts | 115° |
| 2026-05-06 18:18 | 22.64531 | -90.69621 | 34899 ft | 470 kts | 115° |
| 2026-05-06 18:19 | 22.61910 | -90.63168 | 34903 ft | 469 kts | 115° |
| 2026-05-06 18:19 | 22.59287 | -90.56717 | 34905 ft | 469 kts | 115° |
| 2026-05-06 18:20 | 22.56674 | -90.50298 | 34907 ft | 470 kts | 115° |
| 2026-05-06 18:20 | 22.54044 | -90.43848 | 34907 ft | 470 kts | 115° |
| 2026-05-06 18:21 | 22.51175 | -90.37524 | 34905 ft | 469 kts | 121° |
| 2026-05-06 18:21 | 22.47800 | -90.31494 | 34904 ft | 469 kts | 123° |
| 2026-05-06 18:22 | 22.44363 | -90.25500 | 34904 ft | 469 kts | 123° |
| 2026-05-06 18:22 | 22.40943 | -90.19530 | 34903 ft | 468 kts | 123° |
| 2026-05-06 18:23 | 22.37520 | -90.13551 | 34903 ft | 468 kts | 123° |
| 2026-05-06 18:23 | 22.34098 | -90.07578 | 34902 ft | 467 kts | 123° |
| 2026-05-06 18:24 | 22.30696 | -90.01647 | 34902 ft | 468 kts | 123° |
| 2026-05-06 18:24 | 22.27255 | -89.95654 | 34901 ft | 469 kts | 123° |
| 2026-05-06 18:25 | 22.23824 | -89.89683 | 34909 ft | 469 kts | 123° |
| 2026-05-06 18:25 | 22.20377 | -89.83691 | 34918 ft | 470 kts | 123° |
| 2026-05-06 18:26 | 22.16921 | -89.77693 | 34918 ft | 469 kts | 123° |
| 2026-05-06 18:26 | 22.13493 | -89.71749 | 34917 ft | 468 kts | 123° |
| 2026-05-06 18:27 | 22.10045 | -89.65777 | 34912 ft | 468 kts | 123° |
| 2026-05-06 18:27 | 22.06618 | -89.59847 | 34905 ft | 468 kts | 123° |
| 2026-05-06 18:28 | 22.03164 | -89.53876 | 34907 ft | 468 kts | 123° |